createdAt,value
2019-04-26T00:01:03.654Z,18.06
2019-04-26T00:03:40.995Z,18.07
2019-04-26T00:06:12.585Z,18.04
2019-04-26T00:08:44.090Z,17.97
2019-04-26T00:11:18.679Z,17.98
2019-04-26T00:13:58.745Z,17.95
2019-04-26T00:16:35.865Z,17.88
2019-04-26T00:19:06.234Z,17.84
2019-04-26T00:21:36.312Z,17.74
2019-04-26T00:24:06.159Z,17.60
2019-04-26T00:26:36.081Z,17.55
2019-04-26T00:29:06.572Z,17.53
2019-04-26T00:31:36.338Z,17.42
2019-04-26T00:34:05.975Z,17.37
2019-04-26T00:36:35.601Z,17.36
2019-04-26T00:39:07.319Z,17.34
2019-04-26T00:41:37.880Z,17.25
2019-04-26T00:44:08.077Z,17.23
2019-04-26T00:46:39.547Z,17.24
2019-04-26T00:49:12.606Z,17.27
2019-04-26T00:51:43.849Z,17.24
2019-04-26T00:54:14.169Z,17.16
2019-04-26T00:56:44.503Z,17.15
2019-04-26T00:59:16.388Z,17.18
2019-04-26T01:01:47.772Z,17.15
2019-04-26T01:04:18.777Z,17.15
2019-04-26T01:06:50.044Z,17.17
2019-04-26T01:09:19.767Z,17.18
2019-04-26T01:11:49.413Z,17.10
2019-04-26T01:14:19.960Z,17.02
2019-04-26T01:16:49.816Z,17.04
2019-04-26T01:19:20.625Z,17.06
2019-04-26T01:21:53.313Z,17.04
2019-04-26T01:24:25.365Z,17.06
2019-04-26T01:26:58.097Z,17.08
2019-04-26T01:29:28.381Z,17.08
2019-04-26T01:32:10.522Z,17.02
2019-04-26T01:34:41.897Z,16.97
2019-04-26T01:37:11.969Z,16.95
2019-04-26T01:39:46.326Z,16.97
2019-04-26T01:42:37.368Z,16.99
2019-04-26T01:45:14.970Z,17.03
2019-04-26T01:47:46.841Z,17.01
2019-04-26T01:50:16.714Z,17.00
2019-04-26T01:52:46.845Z,16.99
2019-04-26T01:55:17.723Z,16.96
2019-04-26T01:57:47.358Z,16.91
2019-04-26T02:00:22.886Z,16.86
2019-04-26T02:02:57.744Z,16.81
2019-04-26T02:05:28.018Z,16.76
2019-04-26T02:07:58.008Z,16.71
2019-04-26T02:10:28.740Z,16.63
2019-04-26T02:12:59.527Z,16.61
2019-04-26T02:15:33.354Z,16.56
2019-04-26T02:18:04.125Z,16.39
2019-04-26T02:20:56.399Z,16.35
2019-04-26T02:23:27.953Z,16.38
2019-04-26T02:25:59.238Z,16.43
2019-04-26T02:28:28.939Z,16.41
2019-04-26T02:30:59.549Z,16.37
2019-04-26T02:33:31.299Z,16.38
2019-04-26T02:36:00.694Z,16.39
2019-04-26T02:38:31.448Z,16.42
2019-04-26T02:41:01.804Z,16.42
2019-04-26T02:43:33.446Z,16.41
2019-04-26T02:46:10.053Z,16.34
2019-04-26T02:48:47.255Z,16.29
2019-04-26T02:51:20.199Z,16.08
2019-04-26T02:53:56.392Z,16.03
2019-04-26T02:56:30.270Z,16.07
2019-04-26T02:59:12.388Z,15.90
2019-04-26T03:01:42.199Z,15.74
2019-04-26T03:04:12.328Z,15.66
2019-04-26T03:07:01.894Z,15.63
2019-04-26T03:09:17.209Z,15.69
2019-04-26T03:12:02.042Z,15.77
2019-04-26T03:14:42.021Z,15.72
2019-04-26T03:17:17.249Z,15.56
2019-04-26T03:19:57.604Z,15.57
2019-04-26T03:22:51.627Z,15.58
2019-04-26T03:25:27.069Z,15.56
2019-04-26T03:28:05.861Z,15.63
2019-04-26T03:30:52.931Z,15.70
2019-04-26T03:33:53.238Z,15.76
2019-04-26T03:36:21.959Z,15.65
2019-04-26T03:39:20.392Z,15.54
2019-04-26T03:42:26.333Z,15.59
2019-04-26T03:44:59.049Z,15.66
2019-04-26T03:47:37.671Z,15.62
2019-04-26T03:50:21.284Z,15.53
2019-04-26T03:52:57.220Z,15.48
2019-04-26T03:55:34.573Z,15.48
2019-04-26T03:58:10.181Z,15.51
2019-04-26T04:01:00.555Z,15.60
2019-04-26T04:03:35.861Z,15.65
2019-04-26T04:06:10.075Z,15.71
2019-04-26T04:08:49.023Z,15.75
2019-04-26T04:11:22.126Z,15.78
2019-04-26T04:14:00.648Z,15.79
2019-04-26T04:16:50.193Z,15.77
2019-04-26T04:19:27.707Z,15.80
2019-04-26T04:22:09.893Z,15.83
2019-04-26T04:24:49.917Z,15.80
2019-04-26T04:27:28.526Z,15.80
2019-04-26T04:30:03.990Z,15.84
2019-04-26T04:32:43.811Z,15.86
2019-04-26T04:35:16.304Z,15.89
2019-04-26T04:38:05.516Z,15.89
2019-04-26T04:40:47.220Z,15.90
2019-04-26T04:43:30.507Z,15.92
2019-04-26T04:46:07.367Z,15.92
2019-04-26T04:48:49.074Z,15.94
2019-04-26T04:51:52.538Z,15.97
2019-04-26T04:55:01.649Z,15.99
2019-04-26T04:57:21.652Z,16.02
2019-04-26T04:59:54.378Z,16.05
2019-04-26T05:02:46.791Z,16.07
2019-04-26T05:05:39.141Z,16.11
2019-04-26T05:08:14.646Z,16.16
2019-04-26T05:11:06.716Z,16.21
2019-04-26T05:13:42.013Z,16.24
2019-04-26T05:16:16.365Z,16.27
2019-04-26T05:19:08.937Z,16.32
2019-04-26T05:21:53.783Z,16.34
2019-04-26T05:24:36.866Z,16.36
2019-04-26T05:27:16.684Z,16.41
2019-04-26T05:30:08.922Z,16.46
2019-04-26T05:32:50.879Z,16.47
2019-04-26T05:35:42.836Z,16.47
2019-04-26T05:38:21.277Z,16.47
2019-04-26T05:41:00.181Z,16.48
2019-04-26T05:44:02.870Z,16.50
2019-04-26T05:47:17.336Z,16.52
2019-04-26T05:50:21.731Z,16.58
2019-04-26T05:53:18.422Z,16.61
2019-04-26T05:56:21.425Z,16.63
2019-04-26T05:59:09.054Z,16.66
2019-04-26T06:02:07.399Z,16.69
2019-04-26T06:04:57.218Z,16.73
2019-04-26T06:07:50.923Z,16.79
2019-04-26T06:10:39.087Z,16.86
2019-04-26T06:13:22.361Z,16.93
2019-04-26T06:16:15.703Z,16.98
2019-04-26T06:19:12.219Z,17.01
2019-04-26T06:22:10.604Z,17.06
2019-04-26T06:25:00.429Z,17.11
2019-04-26T06:27:46.157Z,17.15
2019-04-26T06:30:19.445Z,17.18
2019-04-26T06:33:16.395Z,17.23
2019-04-26T06:35:49.526Z,17.25
2019-04-26T06:38:50.849Z,17.30
2019-04-26T06:42:05.338Z,17.35
2019-04-26T06:44:39.630Z,17.38
2019-04-26T06:47:19.891Z,17.44
2019-04-26T06:49:59.825Z,17.46
2019-04-26T06:52:32.627Z,17.52
2019-04-26T06:55:09.969Z,17.58
2019-04-26T06:58:03.437Z,17.64
2019-04-26T07:01:01.120Z,17.70
2019-04-26T07:03:45.920Z,17.75
2019-04-26T07:06:18.680Z,17.81
2019-04-26T07:08:57.605Z,17.87
2019-04-26T07:11:48.066Z,17.93
2019-04-26T07:14:37.539Z,17.99
2019-04-26T07:17:12.912Z,18.05
2019-04-26T07:20:06.168Z,18.09
2019-04-26T07:23:06.177Z,18.16
2019-04-26T07:25:57.860Z,18.24
2019-04-26T07:28:50.146Z,18.29
2019-04-26T07:31:38.157Z,18.37
2019-04-26T07:34:42.325Z,18.43
2019-04-26T07:37:37.706Z,18.51
2019-04-26T07:40:32.726Z,18.59
2019-04-26T07:43:30.019Z,18.68
2019-04-26T07:46:23.833Z,18.77
2019-04-26T07:49:12.544Z,18.88
2019-04-26T07:52:10.900Z,18.97
2019-04-26T07:55:11.098Z,19.04
2019-04-26T07:58:01.187Z,19.10
2019-04-26T08:00:44.637Z,19.21
2019-04-26T08:03:13.793Z,19.25
2019-04-26T08:05:57.828Z,19.30
2019-04-26T08:08:30.518Z,19.37
2019-04-26T08:11:12.864Z,19.42
2019-04-26T08:13:57.763Z,19.50
2019-04-26T08:16:48.356Z,19.62
2019-04-26T08:19:22.039Z,19.76
2019-04-26T08:21:54.588Z,19.92
2019-04-26T08:24:28.338Z,20.00
2019-04-26T08:27:19.664Z,20.10
2019-04-26T08:29:44.178Z,20.19
2019-04-26T08:32:18.559Z,20.30
2019-04-26T08:34:56.692Z,20.42
2019-04-26T08:37:49.395Z,20.50
2019-04-26T08:40:30.255Z,20.59
2019-04-26T08:43:12.297Z,20.70
2019-04-26T08:46:03.094Z,20.79
2019-04-26T08:48:51.624Z,20.86
2019-04-26T08:51:25.321Z,20.95
2019-04-26T08:53:55.987Z,21.02
2019-04-26T08:56:28.998Z,21.04
2019-04-26T08:59:04.790Z,21.08
2019-04-26T09:01:41.993Z,21.14
2019-04-26T09:04:15.870Z,21.18
2019-04-26T09:07:02.700Z,21.22
2019-04-26T09:09:36.016Z,21.23
2019-04-26T09:12:09.888Z,21.30
2019-04-26T09:14:42.730Z,21.38
2019-04-26T09:17:12.434Z,21.46
2019-04-26T09:19:42.070Z,21.56
2019-04-26T09:22:26.435Z,21.62
2019-04-26T09:25:10.689Z,21.66
2019-04-26T09:27:58.955Z,21.63
2019-04-26T09:30:42.331Z,21.72
2019-04-26T09:33:21.176Z,21.72
2019-04-26T09:35:50.851Z,21.86
2019-04-26T09:38:20.551Z,21.88
2019-04-26T09:40:52.755Z,21.99
2019-04-26T09:43:35.349Z,21.99
2019-04-26T09:46:12.656Z,22.05
2019-04-26T09:48:43.916Z,22.04
2019-04-26T09:51:13.655Z,22.04
2019-04-26T09:53:44.692Z,22.07
2019-04-26T09:56:14.487Z,22.10
2019-04-26T09:58:44.265Z,22.10
2019-04-26T10:01:14.066Z,22.11
2019-04-26T10:03:43.708Z,22.13
2019-04-26T10:06:13.387Z,22.15
2019-04-26T10:08:43.334Z,22.15
2019-04-26T10:11:16.008Z,22.21
2019-04-26T10:13:49.896Z,22.24
2019-04-26T10:16:27.265Z,22.25
2019-04-26T10:18:59.413Z,22.25
2019-04-26T10:21:29.457Z,22.31
2019-04-26T10:23:59.260Z,22.33
2019-04-26T10:26:29.969Z,22.37
2019-04-26T10:29:01.323Z,22.44
2019-04-26T10:31:31.321Z,22.52
2019-04-26T10:34:01.018Z,22.59
2019-04-26T10:36:32.461Z,22.68
2019-04-26T10:39:02.083Z,22.75
2019-04-26T10:41:31.746Z,22.80
2019-04-26T10:44:01.470Z,22.83
2019-04-26T10:46:31.387Z,22.89
2019-04-26T10:49:08.553Z,22.94
2019-04-26T10:51:38.623Z,22.99
2019-04-26T10:54:10.408Z,23.04
2019-04-26T10:56:44.667Z,23.07
2019-04-26T10:59:15.939Z,23.11
2019-04-26T11:01:45.671Z,23.17
2019-04-26T11:04:15.455Z,23.21
2019-04-26T11:06:45.175Z,23.23
2019-04-26T11:09:14.879Z,23.21
2019-04-26T11:11:44.514Z,23.23
2019-04-26T11:14:18.301Z,23.28
2019-04-26T11:16:45.507Z,23.30
2019-04-26T11:19:15.476Z,23.36
2019-04-26T11:21:45.355Z,23.40
2019-04-26T11:24:19.053Z,23.46
2019-04-26T11:26:46.414Z,23.50
2019-04-26T11:29:16.092Z,23.55
2019-04-26T11:31:45.737Z,23.58
2019-04-26T11:34:15.535Z,23.59
2019-04-26T11:36:45.339Z,23.60
2019-04-26T11:39:16.627Z,23.63
2019-04-26T11:41:46.531Z,23.60
2019-04-26T11:44:16.214Z,23.61
2019-04-26T11:46:46.007Z,23.68
2019-04-26T11:49:15.658Z,23.78
2019-04-26T11:51:45.386Z,23.90
2019-04-26T11:54:17.045Z,24.02
2019-04-26T11:56:46.812Z,24.13
2019-04-26T11:59:16.551Z,24.23
2019-04-26T12:01:46.209Z,24.33
2019-04-26T12:04:20.275Z,24.38
2019-04-26T12:07:03.957Z,24.45
2019-04-26T12:09:35.364Z,24.50
2019-04-26T12:12:09.102Z,24.51
2019-04-26T12:14:36.980Z,24.55
2019-04-26T12:17:06.613Z,24.69
2019-04-26T12:19:36.413Z,24.83
2019-04-26T12:22:08.278Z,24.98
2019-04-26T12:24:37.616Z,25.37
2019-04-26T12:27:10.211Z,25.95
2019-04-26T12:29:38.795Z,26.70
2019-04-26T12:32:08.424Z,27.61
2019-04-26T12:34:38.050Z,28.03
2019-04-26T12:37:07.776Z,28.06
2019-04-26T12:39:40.709Z,27.96
2019-04-26T12:42:12.351Z,27.64
2019-04-26T12:44:52.615Z,27.13
2019-04-26T12:47:23.938Z,26.70
2019-04-26T12:49:54.593Z,26.30
2019-04-26T12:52:24.969Z,26.07
2019-04-26T12:54:57.588Z,25.88
2019-04-26T12:57:26.305Z,25.70
2019-04-26T12:59:57.667Z,25.55
2019-04-26T13:02:27.631Z,25.37
2019-04-26T13:04:57.329Z,25.19
2019-04-26T13:07:27.040Z,25.12
2019-04-26T13:10:04.307Z,25.19
2019-04-26T13:12:52.097Z,25.41
2019-04-26T13:16:04.239Z,25.59
2019-04-26T13:18:34.065Z,25.56
2019-04-26T13:21:04.368Z,25.52
2019-04-26T13:23:34.316Z,25.52
2019-04-26T13:26:04.170Z,25.48
2019-04-26T13:28:33.873Z,25.40
2019-04-26T13:31:03.529Z,25.33
2019-04-26T13:33:33.219Z,25.26
2019-04-26T13:36:03.331Z,25.18
2019-04-26T13:38:33.219Z,25.21
2019-04-26T13:41:04.629Z,25.51
2019-04-26T13:43:34.363Z,26.01
2019-04-26T13:46:08.443Z,27.06
2019-04-26T13:48:43.649Z,28.90
2019-04-26T13:51:18.212Z,30.60
2019-04-26T13:53:47.892Z,31.06
2019-04-26T13:56:17.532Z,30.55
2019-04-26T13:58:47.982Z,29.87
2019-04-26T14:01:18.599Z,29.30
2019-04-26T14:03:49.566Z,28.89
2019-04-26T14:06:19.273Z,28.59
2019-04-26T14:08:48.987Z,28.58
2019-04-26T14:11:20.073Z,28.53
2019-04-26T14:13:50.018Z,28.22
2019-04-26T14:16:21.218Z,27.80
2019-04-26T14:18:51.086Z,27.78
2019-04-26T14:21:20.737Z,27.84
2019-04-26T14:23:54.787Z,27.93
2019-04-26T14:26:41.552Z,28.02
2019-04-26T14:29:11.430Z,28.00
2019-04-26T14:31:41.126Z,27.98
2019-04-26T14:34:12.101Z,28.02
2019-04-26T14:36:43.701Z,28.10
2019-04-26T14:39:14.882Z,28.07
2019-04-26T14:41:44.737Z,27.98
2019-04-26T14:44:15.997Z,28.04
2019-04-26T14:46:48.951Z,28.19
2019-04-26T14:49:19.129Z,28.29
2019-04-26T14:51:53.923Z,28.31
2019-04-26T14:54:21.893Z,28.33
2019-04-26T14:56:52.547Z,28.31
2019-04-26T14:59:44.344Z,28.32
2019-04-26T15:02:26.085Z,28.31
2019-04-26T15:05:16.821Z,28.22
2019-04-26T15:07:51.064Z,28.18
2019-04-26T15:10:20.577Z,28.14
2019-04-26T15:12:58.352Z,28.11
2019-04-26T15:15:21.642Z,28.14
2019-04-26T15:17:55.148Z,28.19
2019-04-26T15:20:24.394Z,28.20
2019-04-26T15:22:54.133Z,28.23
2019-04-26T15:25:23.751Z,28.17
2019-04-26T15:27:54.527Z,28.12
2019-04-26T15:30:24.645Z,27.95
2019-04-26T15:32:56.234Z,27.83
2019-04-26T15:35:28.347Z,27.66
2019-04-26T15:38:01.454Z,27.58
2019-04-26T15:40:48.522Z,27.51
2019-04-26T15:43:25.850Z,27.48
2019-04-26T15:45:59.984Z,27.45
2019-04-26T15:48:50.309Z,27.33
2019-04-26T15:51:24.461Z,27.32
2019-04-26T15:53:53.089Z,27.29
2019-04-26T15:56:24.449Z,27.28
2019-04-26T15:58:54.119Z,27.25
2019-04-26T16:01:24.497Z,27.17
2019-04-26T16:03:55.310Z,27.09
2019-04-26T16:06:25.148Z,27.16
2019-04-26T16:08:55.737Z,27.20
2019-04-26T16:11:25.838Z,27.14
2019-04-26T16:13:56.615Z,27.00
2019-04-26T16:16:29.188Z,26.87
2019-04-26T16:18:59.181Z,26.79
2019-04-26T16:21:28.890Z,26.73
2019-04-26T16:23:58.552Z,26.68
2019-04-26T16:26:30.411Z,26.61
2019-04-26T16:29:05.157Z,26.47
2019-04-26T16:31:53.315Z,26.29
2019-04-26T16:34:26.247Z,26.10
2019-04-26T16:36:59.686Z,25.92
2019-04-26T16:39:38.348Z,25.72
2019-04-26T16:42:05.028Z,25.52
2019-04-26T16:44:33.483Z,25.38
2019-04-26T16:47:05.984Z,25.20
2019-04-26T16:49:42.054Z,25.06
2019-04-26T16:52:07.533Z,24.93
2019-04-26T16:54:37.299Z,24.81
2019-04-26T16:57:11.410Z,24.69
2019-04-26T16:59:46.625Z,24.58
2019-04-26T17:02:09.718Z,24.48
2019-04-26T17:04:40.572Z,24.39
2019-04-26T17:07:10.211Z,24.27
2019-04-26T17:09:57.168Z,24.14
2019-04-26T17:12:15.070Z,24.04
2019-04-26T17:14:47.514Z,23.97
2019-04-26T17:17:14.438Z,23.85
2019-04-26T17:19:44.108Z,23.74
2019-04-26T17:22:24.487Z,23.65
2019-04-26T17:24:55.827Z,23.58
2019-04-26T17:27:26.405Z,23.50
2019-04-26T17:29:56.039Z,23.42
2019-04-26T17:32:25.776Z,23.37
2019-04-26T17:34:59.748Z,23.30
2019-04-26T17:37:30.533Z,23.25
2019-04-26T17:40:00.834Z,23.18
2019-04-26T17:42:36.502Z,23.11
2019-04-26T17:45:06.791Z,23.05
2019-04-26T17:47:36.745Z,23.04
2019-04-26T17:50:06.543Z,22.98
2019-04-26T17:52:37.790Z,22.93
2019-04-26T17:55:14.242Z,22.87
2019-04-26T17:57:48.364Z,22.79
2019-04-26T18:00:20.805Z,22.70
2019-04-26T18:02:50.729Z,22.62
2019-04-26T18:05:24.465Z,22.56
2019-04-26T18:07:58.450Z,22.49
2019-04-26T18:10:23.962Z,22.37
2019-04-26T18:12:54.572Z,22.30
2019-04-26T18:15:24.341Z,22.22
2019-04-26T18:17:55.632Z,22.17
2019-04-26T18:20:26.901Z,22.12
2019-04-26T18:23:10.015Z,22.07
2019-04-26T18:25:41.203Z,22.01
2019-04-26T18:28:13.240Z,21.96
2019-04-26T18:30:44.864Z,21.91
2019-04-26T18:33:17.545Z,21.85
2019-04-26T18:35:49.235Z,21.79
2019-04-26T18:38:17.254Z,21.79
2019-04-26T18:41:00.014Z,21.68
2019-04-26T18:43:23.893Z,21.59
2019-04-26T18:45:53.178Z,21.59
2019-04-26T18:48:23.630Z,21.58
2019-04-26T18:50:53.363Z,21.55
2019-04-26T18:53:24.712Z,21.51
2019-04-26T18:55:54.824Z,21.49
2019-04-26T18:58:24.525Z,21.45
2019-04-26T19:00:57.455Z,21.47
2019-04-26T19:03:29.942Z,21.47
2019-04-26T19:05:58.418Z,21.33
2019-04-26T19:08:28.966Z,21.24
2019-04-26T19:11:03.044Z,21.17
2019-04-26T19:13:44.958Z,21.11
2019-04-26T19:16:25.005Z,20.99
2019-04-26T19:18:56.320Z,20.87
2019-04-26T19:21:39.015Z,20.90
2019-04-26T19:24:11.526Z,20.89
2019-04-26T19:26:36.756Z,20.85
2019-04-26T19:29:17.515Z,20.85
2019-04-26T19:31:37.862Z,20.86
2019-04-26T19:34:07.508Z,20.85
2019-04-26T19:36:37.141Z,20.85
2019-04-26T19:39:07.849Z,20.86
2019-04-26T19:41:37.484Z,20.82
2019-04-26T19:44:07.124Z,20.78
2019-04-26T19:46:38.886Z,20.77
2019-04-26T19:49:30.028Z,20.72
2019-04-26T19:52:04.703Z,20.63
2019-04-26T19:54:38.705Z,20.59
2019-04-26T19:57:15.675Z,20.56
2019-04-26T19:59:45.315Z,20.51
2019-04-26T20:02:17.176Z,20.46
2019-04-26T20:04:47.109Z,20.44
2019-04-26T20:07:16.805Z,20.40
2019-04-26T20:09:46.406Z,20.37
2019-04-26T20:12:16.287Z,20.37
2019-04-26T20:14:51.093Z,20.34
2019-04-26T20:17:20.351Z,20.28
2019-04-26T20:19:53.957Z,20.25
2019-04-26T20:22:28.436Z,20.22
2019-04-26T20:24:57.660Z,20.17
2019-04-26T20:27:27.981Z,20.17
2019-04-26T20:30:02.154Z,20.10
2019-04-26T20:32:33.681Z,20.01
2019-04-26T20:35:14.713Z,20.00
2019-04-26T20:37:45.156Z,19.94
2019-04-26T20:40:22.249Z,19.91
2019-04-26T20:42:48.485Z,19.92
2019-04-26T20:45:19.298Z,19.87
2019-04-26T20:47:51.993Z,19.71
2019-04-26T20:50:21.771Z,19.60
2019-04-26T20:52:55.527Z,19.48
2019-04-26T20:55:30.389Z,19.39
2019-04-26T20:57:59.882Z,19.35
2019-04-26T21:00:31.623Z,19.38
2019-04-26T21:03:05.780Z,19.40
2019-04-26T21:05:45.347Z,19.44
2019-04-26T21:08:04.481Z,19.49
2019-04-26T21:10:35.906Z,19.48
2019-04-26T21:13:05.812Z,19.48
2019-04-26T21:15:36.134Z,19.51
2019-04-26T21:18:05.973Z,19.44
2019-04-26T21:20:36.571Z,19.44
2019-04-26T21:23:06.407Z,19.40
2019-04-26T21:25:43.768Z,19.39
2019-04-26T21:28:17.460Z,19.36
2019-04-26T21:31:03.479Z,19.28
2019-04-26T21:33:38.755Z,19.27
2019-04-26T21:36:06.536Z,19.21
2019-04-26T21:38:43.951Z,19.17
2019-04-26T21:41:18.395Z,19.05
2019-04-26T21:43:48.268Z,18.85
2019-04-26T21:46:19.219Z,18.89
2019-04-26T21:48:49.372Z,18.94
2019-04-26T21:51:19.005Z,18.98
2019-04-26T21:53:48.639Z,19.05
2019-04-26T21:56:18.338Z,19.07
2019-04-26T21:58:48.165Z,19.04
2019-04-26T22:01:21.136Z,19.05
2019-04-26T22:03:57.038Z,19.05
2019-04-26T22:06:27.274Z,19.02
2019-04-26T22:08:58.693Z,18.90
2019-04-26T22:11:26.669Z,18.90
2019-04-26T22:13:58.018Z,18.83
2019-04-26T22:16:35.951Z,18.74
2019-04-26T22:19:23.907Z,18.68
2019-04-26T22:22:06.840Z,18.65
2019-04-26T22:24:40.385Z,18.66
2019-04-26T22:27:10.080Z,18.59
2019-04-26T22:29:39.793Z,18.55
2019-04-26T22:32:11.579Z,18.50
2019-04-26T22:34:46.037Z,18.45
2019-04-26T22:37:18.915Z,18.37
2019-04-26T22:39:47.548Z,18.33
2019-04-26T22:42:17.877Z,18.38
2019-04-26T22:44:49.162Z,18.44
2019-04-26T22:47:20.475Z,18.42
2019-04-26T22:49:50.122Z,18.40
2019-04-26T22:52:19.826Z,18.43
2019-04-26T22:54:49.525Z,18.39
2019-04-26T22:57:19.419Z,18.38
2019-04-26T22:59:50.510Z,18.32
2019-04-26T23:02:25.395Z,18.24
2019-04-26T23:04:56.054Z,18.21
2019-04-26T23:07:26.126Z,18.16
2019-04-26T23:09:55.422Z,18.15
2019-04-26T23:12:44.066Z,18.18
2019-04-26T23:15:30.226Z,18.21
2019-04-26T23:18:08.210Z,18.24
2019-04-26T23:20:39.828Z,18.12
2019-04-26T23:23:09.525Z,18.08
2019-04-26T23:25:39.240Z,18.09
2019-04-26T23:28:09.224Z,18.06
2019-04-26T23:30:38.941Z,18.08
2019-04-26T23:33:08.748Z,18.10
2019-04-26T23:35:43.519Z,18.11
2019-04-26T23:38:09.762Z,18.09
2019-04-26T23:40:39.401Z,18.05
2019-04-26T23:43:09.367Z,18.08
2019-04-26T23:45:41.999Z,18.08
2019-04-26T23:48:12.100Z,18.06
2019-04-26T23:50:42.970Z,18.07
2019-04-26T23:53:13.874Z,18.04
2019-04-26T23:55:45.316Z,18.02
2019-04-26T23:58:15.961Z,18.01
